createdAt,value
2019-03-24T00:02:42.038Z,99.90
2019-03-24T00:06:23.643Z,99.90
2019-03-24T00:09:46.874Z,99.90
2019-03-24T00:13:09.697Z,99.90
2019-03-24T00:16:32.638Z,99.90
2019-03-24T00:19:55.529Z,99.90
2019-03-24T00:23:18.758Z,99.90
2019-03-24T00:26:41.934Z,99.90
2019-03-24T00:30:05.203Z,99.90
2019-03-24T00:33:28.054Z,99.90
2019-03-24T00:36:51.159Z,99.90
2019-03-24T00:40:14.613Z,99.90
2019-03-24T00:43:37.772Z,99.90
2019-03-24T00:47:00.853Z,99.90
2019-03-24T00:50:23.999Z,99.90
2019-03-24T00:53:47.132Z,99.90
2019-03-24T00:57:10.014Z,99.90
2019-03-24T01:00:53.102Z,99.90
2019-03-24T01:04:15.918Z,99.90
2019-03-24T01:07:39.441Z,99.90
2019-03-24T01:11:02.528Z,99.90
2019-03-24T01:14:25.415Z,99.90
2019-03-24T01:17:48.409Z,99.90
2019-03-24T01:21:11.459Z,99.90
2019-03-24T01:24:34.332Z,99.90
2019-03-24T01:27:57.201Z,99.90
2019-03-24T01:31:20.155Z,99.90
2019-03-24T01:34:43.065Z,99.90
2019-03-24T01:38:06.043Z,99.90
2019-03-24T01:41:29.182Z,99.90
2019-03-24T01:44:52.030Z,99.90
2019-03-24T01:48:14.890Z,99.90
2019-03-24T01:51:37.524Z,99.90
2019-03-24T01:55:00.435Z,99.90
2019-03-24T01:58:23.321Z,99.90
2019-03-24T02:01:45.954Z,99.90
2019-03-24T02:05:08.939Z,99.90
2019-03-24T02:08:31.850Z,99.90
2019-03-24T02:11:54.769Z,99.90
2019-03-24T02:15:17.629Z,99.90
2019-03-24T02:18:40.477Z,99.90
2019-03-24T02:22:03.232Z,99.90
2019-03-24T02:25:26.143Z,99.90
2019-03-24T02:28:49.059Z,99.90
2019-03-24T02:32:12.227Z,99.90
2019-03-24T02:35:34.803Z,99.90
2019-03-24T02:38:57.369Z,99.90
2019-03-24T02:42:20.325Z,99.90
2019-03-24T02:45:43.195Z,99.90
2019-03-24T02:49:06.431Z,99.90
2019-03-24T02:52:29.631Z,99.90
2019-03-24T02:55:58.496Z,99.90
2019-03-24T02:59:21.402Z,99.90
2019-03-24T03:02:44.325Z,99.90
2019-03-24T03:06:06.903Z,99.90
2019-03-24T03:09:29.813Z,99.90
2019-03-24T03:12:52.679Z,99.90
2019-03-24T03:16:15.795Z,99.90
2019-03-24T03:19:38.646Z,99.90
2019-03-24T03:23:01.519Z,99.90
2019-03-24T03:26:24.355Z,99.90
2019-03-24T03:29:47.446Z,99.90
2019-03-24T03:33:09.976Z,99.90
2019-03-24T03:36:32.853Z,99.90
2019-03-24T03:39:58.059Z,99.90
2019-03-24T03:43:20.166Z,99.90
2019-03-24T03:46:52.326Z,99.90
2019-03-24T03:50:09.928Z,99.90
2019-03-24T03:53:32.831Z,99.90
2019-03-24T03:56:55.750Z,99.90
2019-03-24T04:00:23.943Z,99.90
2019-03-24T04:03:46.961Z,99.90
2019-03-24T04:07:10.096Z,99.90
2019-03-24T04:10:33.124Z,99.90
2019-03-24T04:13:56.151Z,99.90
2019-03-24T04:17:19.124Z,99.90
2019-03-24T04:20:42.328Z,99.90
2019-03-24T04:24:05.142Z,99.90
2019-03-24T04:27:28.050Z,99.90
2019-03-24T04:30:51.163Z,99.90
2019-03-24T04:34:14.319Z,99.90
2019-03-24T04:37:37.308Z,99.90
2019-03-24T04:41:00.479Z,99.90
2019-03-24T04:44:23.377Z,99.90
2019-03-24T04:47:46.036Z,99.90
2019-03-24T04:51:09.045Z,99.90
2019-03-24T04:54:32.175Z,99.90
2019-03-24T04:57:55.196Z,99.90
2019-03-24T05:01:18.226Z,99.90
2019-03-24T05:04:40.827Z,99.90
2019-03-24T05:08:04.126Z,99.90
2019-03-24T05:11:27.181Z,99.90
2019-03-24T05:14:50.362Z,99.90
2019-03-24T05:18:13.135Z,99.90
2019-03-24T05:21:36.243Z,99.90
2019-03-24T05:24:59.527Z,99.90
2019-03-24T05:28:22.391Z,99.90
2019-03-24T05:31:45.326Z,99.90
2019-03-24T05:35:08.217Z,99.90
2019-03-24T05:38:31.142Z,99.90
2019-03-24T05:41:54.274Z,99.90
2019-03-24T05:45:17.275Z,99.90
2019-03-24T05:48:40.151Z,99.90
2019-03-24T05:52:03.574Z,99.90
2019-03-24T05:55:26.735Z,99.90
2019-03-24T05:58:49.436Z,99.90
2019-03-24T06:02:12.512Z,99.90
2019-03-24T06:05:35.870Z,99.90
2019-03-24T06:08:58.879Z,99.90
2019-03-24T06:12:22.040Z,99.90
2019-03-24T06:15:45.294Z,99.90
2019-03-24T06:19:08.366Z,99.90
2019-03-24T06:22:31.277Z,99.90
2019-03-24T06:25:53.986Z,99.90
2019-03-24T06:29:17.178Z,99.90
2019-03-24T06:32:40.629Z,99.90
2019-03-24T06:36:03.803Z,99.90
2019-03-24T06:39:26.979Z,99.90
2019-03-24T06:42:50.112Z,99.90
2019-03-24T06:46:14.979Z,99.90
2019-03-24T06:49:37.761Z,99.90
2019-03-24T06:53:01.026Z,99.90
2019-03-24T06:56:23.782Z,99.90
2019-03-24T06:59:46.846Z,99.90
2019-03-24T07:03:10.024Z,99.90
2019-03-24T07:06:34.778Z,99.90
2019-03-24T07:09:58.069Z,99.90
2019-03-24T07:13:21.042Z,99.90
2019-03-24T07:16:43.688Z,99.90
2019-03-24T07:20:07.301Z,99.90
2019-03-24T07:23:30.108Z,99.90
2019-03-24T07:26:52.774Z,99.90
2019-03-24T07:30:15.739Z,99.90
2019-03-24T07:33:38.438Z,99.90
2019-03-24T07:37:01.638Z,99.90
2019-03-24T07:40:24.249Z,99.90
2019-03-24T07:43:47.159Z,99.90
2019-03-24T07:47:13.590Z,99.90
2019-03-24T07:50:36.674Z,99.90
2019-03-24T07:53:59.586Z,99.90
2019-03-24T07:57:22.694Z,99.90
2019-03-24T08:00:45.607Z,99.90
2019-03-24T08:04:08.789Z,99.90
2019-03-24T08:07:31.418Z,99.90
2019-03-24T08:10:53.962Z,99.90
2019-03-24T08:14:17.014Z,99.90
2019-03-24T08:17:40.007Z,99.90
2019-03-24T08:21:02.637Z,99.90
2019-03-24T08:24:25.466Z,99.90
2019-03-24T08:27:48.384Z,99.90
2019-03-24T08:31:11.299Z,99.90
2019-03-24T08:34:34.322Z,99.90
2019-03-24T08:37:57.302Z,99.90
2019-03-24T08:41:20.514Z,99.90
2019-03-24T08:44:43.275Z,99.90
2019-03-24T08:48:06.247Z,99.90
2019-03-24T08:51:29.198Z,99.90
2019-03-24T08:54:52.238Z,99.90
2019-03-24T08:58:14.928Z,99.90
2019-03-24T09:01:38.042Z,99.90
2019-03-24T09:05:01.154Z,99.90
2019-03-24T09:08:24.557Z,99.90
2019-03-24T09:11:47.491Z,99.90
2019-03-24T09:15:10.699Z,99.90
2019-03-24T09:18:33.772Z,99.90
2019-03-24T09:21:56.697Z,99.90
2019-03-24T09:25:19.983Z,99.90
2019-03-24T09:28:42.896Z,99.90
2019-03-24T09:32:05.983Z,99.90
2019-03-24T09:35:29.457Z,99.90
2019-03-24T09:38:52.522Z,99.90
2019-03-24T09:42:15.767Z,99.90
2019-03-24T09:45:39.680Z,99.90
2019-03-24T09:49:03.553Z,99.90
2019-03-24T09:52:27.007Z,99.90
2019-03-24T09:55:50.143Z,99.90
2019-03-24T09:59:13.090Z,99.90
2019-03-24T10:02:36.502Z,99.90
2019-03-24T10:05:59.401Z,99.90
2019-03-24T10:09:22.444Z,99.90
2019-03-24T10:12:45.627Z,99.90
2019-03-24T10:16:08.611Z,99.90
2019-03-24T10:19:31.637Z,99.90
2019-03-24T10:22:54.602Z,99.90
2019-03-24T10:26:17.562Z,99.90
2019-03-24T10:29:40.358Z,99.90
2019-03-24T10:33:03.559Z,99.90
2019-03-24T10:36:26.650Z,99.90
2019-03-24T10:39:49.678Z,99.90
2019-03-24T10:43:13.014Z,99.90
2019-03-24T10:46:35.696Z,99.60
2019-03-24T10:49:58.945Z,99.20
2019-03-24T10:53:21.952Z,98.40
2019-03-24T10:56:45.158Z,98.40
2019-03-24T11:00:09.941Z,98.70
2019-03-24T11:03:32.788Z,97.90
2019-03-24T11:06:55.343Z,99.30
2019-03-24T11:10:18.575Z,98.40
2019-03-24T11:13:41.484Z,98.70
2019-03-24T11:17:04.450Z,98.20
2019-03-24T11:20:27.289Z,96.00
2019-03-24T11:23:50.495Z,96.70
2019-03-24T11:27:13.499Z,97.20
2019-03-24T11:30:36.609Z,96.70
2019-03-24T11:33:59.784Z,96.50
2019-03-24T11:37:22.985Z,97.30
2019-03-24T11:40:46.234Z,96.70
2019-03-24T11:44:09.181Z,95.20
2019-03-24T11:47:32.370Z,95.20
2019-03-24T11:50:55.544Z,94.90
2019-03-24T11:54:18.470Z,94.90
2019-03-24T11:57:41.260Z,94.00
2019-03-24T12:01:04.487Z,93.00
2019-03-24T12:04:27.596Z,93.90
2019-03-24T12:07:50.779Z,93.90
2019-03-24T12:11:13.759Z,91.70
2019-03-24T12:14:36.439Z,92.30
2019-03-24T12:17:59.380Z,90.90
2019-03-24T12:21:22.673Z,91.70
2019-03-24T12:24:46.169Z,92.20
2019-03-24T12:28:09.400Z,92.30
2019-03-24T12:31:32.664Z,91.40
2019-03-24T12:34:55.702Z,89.60
2019-03-24T12:38:18.648Z,89.10
2019-03-24T12:41:41.758Z,89.60
2019-03-24T12:45:05.659Z,89.60
2019-03-24T12:48:28.900Z,89.70
2019-03-24T12:51:52.059Z,87.60
2019-03-24T12:55:15.090Z,87.20
2019-03-24T12:58:38.069Z,86.80
2019-03-24T13:02:00.776Z,86.40
2019-03-24T13:05:23.507Z,83.50
2019-03-24T13:08:46.749Z,84.00
2019-03-24T13:12:09.664Z,82.00
2019-03-24T13:15:32.882Z,82.40
2019-03-24T13:18:57.120Z,79.30
2019-03-24T13:22:20.089Z,76.40
2019-03-24T13:25:43.230Z,76.90
2019-03-24T13:29:06.111Z,77.40
2019-03-24T13:32:29.209Z,74.50
2019-03-24T13:36:03.813Z,77.20
2019-03-24T13:39:26.970Z,78.40
2019-03-24T13:42:49.777Z,79.10
2019-03-24T13:46:12.769Z,77.10
2019-03-24T13:49:35.738Z,77.50
2019-03-24T13:52:59.140Z,79.60
2019-03-24T13:56:22.430Z,81.90
2019-03-24T13:59:45.494Z,81.90
2019-03-24T14:03:08.542Z,80.10
2019-03-24T14:06:31.226Z,79.90
2019-03-24T14:09:54.454Z,80.20
2019-03-24T14:13:17.408Z,81.00
2019-03-24T14:16:40.480Z,81.10
2019-03-24T14:20:04.166Z,81.10
2019-03-24T14:23:27.095Z,82.30
2019-03-24T14:26:50.398Z,84.30
2019-03-24T14:30:14.040Z,83.70
2019-03-24T14:33:37.426Z,83.40
2019-03-24T14:37:00.184Z,86.90
2019-03-24T14:40:23.003Z,86.90
2019-03-24T14:43:46.330Z,86.90
2019-03-24T14:47:09.468Z,87.30
2019-03-24T14:50:32.800Z,87.40
2019-03-24T14:53:55.529Z,85.30
2019-03-24T14:57:18.565Z,85.90
2019-03-24T15:00:42.795Z,89.60
2019-03-24T15:04:06.167Z,91.20
2019-03-24T15:07:29.235Z,92.00
2019-03-24T15:10:52.422Z,92.60
2019-03-24T15:14:15.934Z,92.90
2019-03-24T15:17:39.119Z,93.20
2019-03-24T15:21:05.960Z,94.40
2019-03-24T15:24:26.894Z,94.10
2019-03-24T15:27:50.038Z,93.20
2019-03-24T15:31:13.045Z,93.60
2019-03-24T15:34:36.128Z,93.70
2019-03-24T15:38:08.053Z,94.30
2019-03-24T15:41:23.673Z,94.10
2019-03-24T15:44:47.012Z,94.00
2019-03-24T15:48:09.948Z,94.30
2019-03-24T15:51:32.963Z,94.50
2019-03-24T15:54:55.649Z,95.20
2019-03-24T15:58:18.551Z,95.20
2019-03-24T16:01:41.488Z,95.50
2019-03-24T16:05:04.927Z,95.80
2019-03-24T16:08:27.800Z,95.90
2019-03-24T16:11:50.492Z,96.00
2019-03-24T16:15:13.549Z,95.70
2019-03-24T16:18:36.698Z,96.10
2019-03-24T16:21:59.718Z,95.90
2019-03-24T16:25:22.698Z,96.30
2019-03-24T16:28:45.647Z,96.10
2019-03-24T16:32:08.598Z,96.80
2019-03-24T16:35:31.756Z,96.70
2019-03-24T16:39:03.105Z,97.50
2019-03-24T16:42:19.491Z,97.70
2019-03-24T16:45:42.367Z,98.10
2019-03-24T16:49:04.875Z,98.40
2019-03-24T16:52:27.493Z,99.10
2019-03-24T16:55:50.564Z,99.00
2019-03-24T16:59:13.543Z,99.70
2019-03-24T17:02:36.527Z,99.50
2019-03-24T17:05:59.351Z,99.60
2019-03-24T17:09:22.403Z,99.90
2019-03-24T17:12:45.139Z,99.90
2019-03-24T17:16:08.297Z,99.90
2019-03-24T17:19:31.185Z,99.90
2019-03-24T17:22:54.050Z,99.90
2019-03-24T17:26:17.395Z,99.90
2019-03-24T17:29:40.487Z,99.90
2019-03-24T17:33:03.731Z,99.90
2019-03-24T17:36:26.910Z,99.90
2019-03-24T17:39:50.411Z,99.90
2019-03-24T17:43:13.522Z,99.90
2019-03-24T17:46:36.766Z,99.90
2019-03-24T17:49:59.571Z,99.90
2019-03-24T17:53:22.886Z,99.90
2019-03-24T17:56:45.632Z,99.90
2019-03-24T18:00:10.190Z,99.90
2019-03-24T18:03:33.519Z,99.90
2019-03-24T18:06:56.112Z,99.90
2019-03-24T18:10:19.359Z,99.90
2019-03-24T18:13:42.677Z,99.90
2019-03-24T18:17:05.786Z,99.90
2019-03-24T18:20:32.858Z,99.90
2019-03-24T18:23:55.590Z,99.90
2019-03-24T18:27:18.529Z,99.90
2019-03-24T18:30:41.158Z,99.90
2019-03-24T18:34:04.490Z,99.90
2019-03-24T18:37:27.450Z,99.90
2019-03-24T18:40:50.192Z,99.90
2019-03-24T18:44:13.123Z,99.90
2019-03-24T18:47:35.847Z,99.90
2019-03-24T18:50:58.848Z,99.90
2019-03-24T18:54:21.707Z,99.90
2019-03-24T18:57:44.706Z,99.90
2019-03-24T19:01:07.780Z,99.90
2019-03-24T19:04:30.894Z,99.90
2019-03-24T19:07:53.878Z,99.90
2019-03-24T19:11:16.814Z,99.90
2019-03-24T19:14:40.229Z,99.90
2019-03-24T19:18:03.264Z,99.90
2019-03-24T19:21:26.627Z,99.90
2019-03-24T19:24:49.289Z,99.90
2019-03-24T19:28:12.242Z,99.90
2019-03-24T19:31:35.262Z,99.90
2019-03-24T19:34:58.106Z,99.90
2019-03-24T19:38:21.293Z,99.90
2019-03-24T19:41:44.219Z,99.90
2019-03-24T19:45:07.780Z,99.90
2019-03-24T19:48:30.833Z,99.90
2019-03-24T19:51:53.752Z,99.90
2019-03-24T19:55:16.449Z,99.90
2019-03-24T19:58:39.193Z,99.90
2019-03-24T20:02:02.201Z,99.90
2019-03-24T20:05:26.866Z,99.90
2019-03-24T20:08:50.950Z,99.90
2019-03-24T20:12:15.849Z,99.90
2019-03-24T20:15:38.647Z,99.90
2019-03-24T20:19:01.592Z,99.90
2019-03-24T20:22:24.297Z,99.90
2019-03-24T20:25:47.346Z,99.90
2019-03-24T20:29:10.573Z,99.90
2019-03-24T20:32:33.734Z,99.90
2019-03-24T20:35:56.687Z,99.90
2019-03-24T20:39:19.566Z,99.90
2019-03-24T20:42:42.204Z,99.90
2019-03-24T20:46:04.939Z,99.90
2019-03-24T20:49:28.046Z,99.90
2019-03-24T20:52:51.230Z,99.90
2019-03-24T20:56:14.318Z,99.90
2019-03-24T20:59:36.990Z,99.90
2019-03-24T21:02:59.747Z,99.90
2019-03-24T21:06:22.870Z,99.90
2019-03-24T21:09:46.619Z,99.90
2019-03-24T21:13:09.355Z,99.90
2019-03-24T21:16:32.387Z,99.90
2019-03-24T21:19:55.407Z,99.90
2019-03-24T21:23:28.866Z,99.90
2019-03-24T21:26:42.684Z,99.90
2019-03-24T21:30:06.267Z,99.90
2019-03-24T21:33:29.307Z,99.90
2019-03-24T21:36:52.554Z,99.90
2019-03-24T21:40:15.703Z,99.90
2019-03-24T21:43:38.410Z,99.90
2019-03-24T21:47:01.631Z,99.90
2019-03-24T21:50:24.688Z,99.90
2019-03-24T21:53:48.159Z,99.90
2019-03-24T21:57:11.370Z,99.90
2019-03-24T22:00:38.214Z,99.90
2019-03-24T22:04:00.818Z,99.90
2019-03-24T22:07:23.620Z,99.90
2019-03-24T22:10:46.363Z,99.90
2019-03-24T22:14:09.451Z,99.90
2019-03-24T22:17:32.099Z,99.90
2019-03-24T22:20:55.214Z,99.90
2019-03-24T22:24:18.295Z,99.90
2019-03-24T22:27:41.234Z,99.90
2019-03-24T22:31:04.079Z,99.90
2019-03-24T22:34:27.055Z,99.90
2019-03-24T22:37:49.672Z,99.90
2019-03-24T22:41:12.358Z,99.90
2019-03-24T22:44:35.089Z,99.90
2019-03-24T22:47:58.491Z,99.90
2019-03-24T22:51:21.392Z,99.90
2019-03-24T22:54:44.297Z,99.90
2019-03-24T22:58:07.334Z,99.90
2019-03-24T23:01:30.552Z,99.90
2019-03-24T23:04:53.486Z,99.90
2019-03-24T23:08:16.516Z,99.90
2019-03-24T23:11:39.533Z,99.90
2019-03-24T23:15:02.443Z,99.90
2019-03-24T23:18:25.067Z,99.90
2019-03-24T23:21:48.095Z,99.90
2019-03-24T23:25:11.334Z,99.90
2019-03-24T23:28:34.433Z,99.90
2019-03-24T23:31:57.641Z,99.90
2019-03-24T23:35:20.633Z,99.90
2019-03-24T23:38:43.625Z,99.90
2019-03-24T23:42:06.683Z,99.90
2019-03-24T23:45:29.475Z,99.90
2019-03-24T23:48:52.471Z,99.90
2019-03-24T23:52:15.801Z,99.90
2019-03-24T23:55:38.874Z,99.90
2019-03-24T23:59:01.792Z,99.90
